ESGJ

Jönköping Airport

Jönköping, Sweden
TAF ESGJ 162030Z 1621/1701 VRB02KT CAVOK
Issued Valid From Valid To
Jul-16 @ 20:30 UTC
(4 hours ago)
Jul-16 @ 21:00 UTC
(3 hours ago)
Jul-17 @ 01:00 UTC
(in 34 minutes)
Jul-16 @ 21:00 to Jul-17 @ 01:00
TAF ESGJ 162030Z 1621/1701 VRB02KT CAVOK
Wind Visibility Clouds Conditions
Variable at 2 knots 10,000+ meters
  • No significant clouds
TAF ESGJ 162030Z 1621/1701 VRB02KT CAVOK
Issued Jul-16 @ 20:30 UTC
(4 hours ago)
Valid From Jul-16 @ 21:00 UTC
(3 hours ago)
Valid To Jul-17 @ 01:00 UTC
(in 34 minutes)
Jul-16 @ 21:00 - Jul-17 @ 01:00
Wind Visibility
Variable at 2 knots 10,000+ meters
Clouds
  • No significant clouds
Conditions